Time;durP1;ratioP1;P1;durP2;ratioP2;P2;SDS_P1;SDS_P2;PMS_P1;PMS_P2;Temp;Humidity;BMP_temperature;BMP_pressure;BME280_temperature;BME280_humidity;BME280_pressure;Samples;Min_cycle;Max_cycle;Signal;HPM_P1;HPM_P2
2021/08/03 00:01:49;;;;;;;4.68;2.38;;;15.70;99.90;;;;;;6225936;28;20099;-77
2021/08/03 00:04:57;;;;;;;5.40;3.85;;;15.70;99.90;;;;;;6225343;28;20137;-77
2021/08/03 00:08:04;;;;;;;5.97;2.15;;;15.70;99.90;;;;;;6226495;28;20038;-76
2021/08/03 00:11:07;;;;;;;3.00;2.10;;;15.70;99.90;;;;;;6226170;28;20119;-76
2021/08/03 00:14:10;;;;;;;4.10;2.22;;;15.70;99.90;;;;;;6227219;28;20056;-77
2021/08/03 00:17:13;;;;;;;4.70;1.95;;;15.70;99.90;;;;;;6226894;28;20053;-76
2021/08/03 00:20:16;;;;;;;6.63;2.22;;;15.70;99.90;;;;;;6225669;28;20523;-76
2021/08/03 00:23:20;;;;;;;2.15;1.70;;;15.70;99.90;;;;;;6225125;28;20096;-76
2021/08/03 00:26:22;;;;;;;3.30;2.35;;;15.70;99.90;;;;;;6225800;28;20054;-76
2021/08/03 00:29:24;;;;;;;3.75;2.75;;;15.80;99.90;;;;;;6224986;28;20128;-76
2021/08/03 00:32:28;;;;;;;7.63;2.42;;;15.80;99.90;;;;;;6224508;28;20175;-76
2021/08/03 00:35:31;;;;;;;7.03;2.33;;;15.80;99.90;;;;;;6224735;28;20046;-77
2021/08/03 00:38:32;;;;;;;4.25;2.85;;;15.80;99.90;;;;;;6224778;28;20169;-76
2021/08/03 00:41:41;;;;;;;4.43;2.67;;;15.80;99.90;;;;;;6226030;28;20147;-76
2021/08/03 00:44:43;;;;;;;;;;;15.70;99.90;;;;;;6225230;28;20133;-75
2021/08/03 00:47:45;;;;;;;2.67;2.38;;;15.70;99.90;;;;;;6241143;28;20382;-76
2021/08/03 00:50:48;;;;;;;3.05;2.03;;;15.70;99.90;;;;;;6249449;28;20047;-76
2021/08/03 00:53:51;;;;;;;7.18;2.55;;;15.70;99.90;;;;;;6249701;28;20187;-77
2021/08/03 00:56:53;;;;;;;4.07;2.20;;;15.70;99.90;;;;;;6249514;28;20068;-78
2021/08/03 00:59:55;;;;;;;11.80;4.53;;;15.70;99.90;;;;;;6250547;28;20049;-77
2021/08/03 01:02:56;;;;;;;4.22;3.17;;;15.70;99.90;;;;;;6249303;28;20037;-77
2021/08/03 01:06:06;;;;;;;3.15;2.92;;;15.70;99.90;;;;;;6248654;28;20045;-76
2021/08/03 01:09:18;;;;;;;2.97;2.38;;;15.70;99.90;;;;;;6249536;28;20052;-75
2021/08/03 01:12:32;;;;;;;2.65;2.45;;;15.70;99.90;;;;;;6249250;28;20046;-77
2021/08/03 01:15:44;;;;;;;5.55;2.67;;;15.70;99.90;;;;;;6248521;28;20119;-75
2021/08/03 01:18:52;;;;;;;3.03;2.70;;;15.70;99.90;;;;;;6247607;28;20171;-74
2021/08/03 01:22:01;;;;;;;;;;;15.80;99.90;;;;;;6248431;28;20525;-75
2021/08/03 01:25:17;;;;;;;9.32;2.30;;;15.80;99.90;;;;;;6247498;28;19963;-74
2021/08/03 01:28:23;;;;;;;2.47;2.00;;;15.60;99.90;;;;;;6247136;28;20515;-75
2021/08/03 01:31:29;;;;;;;3.00;2.80;;;15.70;99.90;;;;;;6247665;28;20037;-74
2021/08/03 01:34:33;;;;;;;2.35;2.15;;;15.70;99.90;;;;;;6247630;28;20055;-74
2021/08/03 01:37:35;;;;;;;4.03;2.40;;;15.60;99.90;;;;;;6247527;28;20087;-74
2021/08/03 01:40:41;;;;;;;3.53;2.17;;;15.70;99.90;;;;;;6247350;28;20094;-75
2021/08/03 01:43:47;;;;;;;7.60;2.58;;;15.60;99.90;;;;;;6247209;28;20047;-75
2021/08/03 01:46:49;;;;;;;4.88;2.30;;;15.60;99.90;;;;;;6246917;28;20041;-75
2021/08/03 01:49:53;;;;;;;3.95;2.10;;;15.60;99.90;;;;;;6247927;28;20049;-75
2021/08/03 01:52:56;;;;;;;2.83;2.50;;;15.50;99.90;;;;;;6247191;28;20121;-75
2021/08/03 01:56:01;;;;;;;7.95;2.40;;;15.50;99.90;;;;;;6246848;28;20175;-76
2021/08/03 01:59:06;;;;;;;7.07;2.33;;;15.40;99.90;;;;;;6247362;28;20087;-75
2021/08/03 02:02:08;;;;;;;3.50;3.17;;;15.40;99.90;;;;;;6247790;28;20049;-75
2021/08/03 02:05:11;;;;;;;3.03;2.15;;;15.40;99.90;;;;;;6247325;28;20248;-75
2021/08/03 02:08:17;;;;;;;3.33;2.00;;;15.40;99.90;;;;;;6247148;28;20118;-75
2021/08/03 02:11:22;;;;;;;4.65;2.15;;;15.30;99.90;;;;;;6247200;28;20128;-75
2021/08/03 02:14:25;;;;;;;2.67;2.45;;;15.30;99.90;;;;;;6247579;28;20196;-75
2021/08/03 02:17:28;;;;;;;4.68;2.70;;;15.30;99.90;;;;;;6246996;28;20562;-76
2021/08/03 02:20:30;;;;;;;2.83;2.42;;;15.30;99.90;;;;;;6246859;28;20081;-76
2021/08/03 02:23:32;;;;;;;5.50;2.97;;;15.20;99.90;;;;;;6246958;28;20064;-76
2021/08/03 02:26:33;;;;;;;8.63;3.97;;;15.20;99.90;;;;;;6247013;28;20096;-76
2021/08/03 02:29:40;;;;;;;2.40;1.88;;;15.20;99.90;;;;;;6247421;28;20132;-76
2021/08/03 02:32:47;;;;;;;5.20;2.42;;;15.10;99.90;;;;;;6247170;28;20577;-76
2021/08/03 02:35:55;;;;;;;3.00;2.22;;;15.00;99.90;;;;;;6247002;28;20049;-76
2021/08/03 02:38:58;;;;;;;;;;;14.90;99.90;;;;;;6248051;28;20049;-76
2021/08/03 02:42:01;;;;;;;3.70;2.17;;;14.90;99.90;;;;;;6247713;28;19921;-77
2021/08/03 02:45:07;;;;;;;12.30;3.15;;;14.70;99.90;;;;;;6261963;22;20053;-72
2021/08/03 02:48:14;;;;;;;6.60;3.33;;;14.70;99.90;;;;;;6219914;28;20133;-75
2021/08/03 02:51:16;;;;;;;8.20;2.50;;;14.70;99.90;;;;;;6221553;28;20046;-75
2021/08/03 02:54:26;;;;;;;2.35;1.83;;;14.80;99.90;;;;;;6225426;28;20571;-75
2021/08/03 02:57:29;;;;;;;6.70;2.90;;;14.80;99.90;;;;;;6226350;28;20050;-75
2021/08/03 03:00:35;;;;;;;6.25;3.05;;;14.80;99.90;;;;;;6226528;28;20185;-75
2021/08/03 03:03:43;;;;;;;4.93;3.70;;;14.80;99.90;;;;;;6226560;28;20168;-75
2021/08/03 03:06:50;;;;;;;2.13;2.03;;;14.70;99.90;;;;;;6226104;28;20053;-75
2021/08/03 03:09:53;;;;;;;2.33;2.20;;;14.70;99.90;;;;;;6226824;28;20084;-75
2021/08/03 03:13:05;;;;;;;3.53;2.60;;;14.70;99.90;;;;;;6226339;28;20376;-75
2021/08/03 03:16:12;;;;;;;6.75;2.80;;;14.60;99.90;;;;;;6225643;28;20050;-74
2021/08/03 03:19:16;;;;;;;5.05;3.83;;;14.60;99.90;;;;;;6225922;28;20588;-75
2021/08/03 03:22:19;;;;;;;2.08;1.90;;;14.60;99.90;;;;;;6226211;28;20103;-75
2021/08/03 03:25:25;;;;;;;5.78;2.70;;;14.60;99.90;;;;;;6225707;28;20132;-75
2021/08/03 03:28:30;;;;;;;3.95;2.38;;;14.50;99.90;;;;;;6225602;28;20121;-75
2021/08/03 03:31:34;;;;;;;6.22;5.00;;;14.40;99.90;;;;;;6226142;28;20038;-74
2021/08/03 03:34:40;;;;;;;8.10;2.47;;;14.40;99.90;;;;;;6225618;28;20050;-74
2021/08/03 03:37:43;;;;;;;2.50;2.05;;;14.40;99.90;;;;;;6225585;28;20056;-75
2021/08/03 03:40:46;;;;;;;5.90;2.33;;;14.40;99.90;;;;;;6225233;28;20065;-74
2021/08/03 03:43:48;;;;;;;6.95;2.25;;;14.30;99.90;;;;;;6225691;28;20050;-74
2021/08/03 03:46:57;;;;;;;2.15;1.95;;;14.30;99.90;;;;;;6224718;28;20406;-74
2021/08/03 03:50:05;;;;;;;5.03;2.88;;;14.30;99.90;;;;;;6225821;28;20128;-74
2021/08/03 03:53:10;;;;;;;4.70;3.58;;;14.30;99.90;;;;;;6225181;28;20042;-74
2021/08/03 03:56:13;;;;;;;4.68;2.15;;;14.30;99.90;;;;;;6224821;28;20119;-74
2021/08/03 03:59:20;;;;;;;4.07;2.55;;;14.40;99.90;;;;;;6225654;28;20124;-74
2021/08/03 04:02:25;;;;;;;3.17;2.80;;;14.40;99.90;;;;;;6225563;28;20058;-74
2021/08/03 04:05:28;;;;;;;6.80;2.50;;;14.40;99.90;;;;;;6224627;28;20112;-74
2021/08/03 04:08:30;;;;;;;4.50;2.65;;;14.50;99.90;;;;;;6225135;28;20045;-74
2021/08/03 04:11:32;;;;;;;4.35;2.55;;;14.50;99.90;;;;;;6225269;28;20124;-74
2021/08/03 04:14:37;;;;;;;6.45;2.75;;;14.60;99.90;;;;;;6225366;28;20233;-74
2021/08/03 04:17:40;;;;;;;3.85;2.47;;;14.60;99.90;;;;;;6225224;28;20061;-74
2021/08/03 04:20:42;;;;;;;3.28;2.00;;;14.60;99.90;;;;;;6225034;28;20121;-74
2021/08/03 04:23:44;;;;;;;2.83;2.40;;;14.60;99.90;;;;;;6225667;28;20077;-74
2021/08/03 04:26:47;;;;;;;2.30;2.08;;;14.70;99.90;;;;;;6225582;28;20046;-74
2021/08/03 04:29:49;;;;;;;6.60;3.08;;;14.60;99.90;;;;;;6225661;28;20092;-74
2021/08/03 04:32:52;;;;;;;2.80;1.88;;;14.60;99.90;;;;;;6225045;28;20077;-75
2021/08/03 04:35:54;;;;;;;6.40;2.78;;;14.60;99.90;;;;;;6224465;28;20082;-74
2021/08/03 04:38:56;;;;;;;5.68;2.38;;;14.60;99.90;;;;;;6224489;28;20120;-75
2021/08/03 04:41:58;;;;;;;2.92;2.03;;;14.60;99.90;;;;;;6224687;28;20132;-74
2021/08/03 04:45:00;;;;;;;8.32;2.22;;;14.60;99.90;;;;;;6223876;28;20127;-75
2021/08/03 04:48:03;;;;;;;3.03;2.38;;;14.60;99.90;;;;;;6223352;28;20423;-74
2021/08/03 04:51:06;;;;;;;7.95;2.35;;;14.60;99.90;;;;;;6223586;28;20172;-74
2021/08/03 04:54:08;;;;;;;4.63;2.15;;;14.60;99.90;;;;;;6223793;28;20050;-74
2021/08/03 04:57:10;;;;;;;5.85;1.90;;;14.70;99.90;;;;;;6223061;28;20046;-74
2021/08/03 05:00:14;;;;;;;6.30;2.70;;;14.80;99.90;;;;;;6223474;28;20402;-74
2021/08/03 05:03:17;;;;;;;5.75;2.40;;;14.70;99.90;;;;;;6223488;28;20132;-74
2021/08/03 05:06:19;;;;;;;3.67;2.78;;;14.80;99.90;;;;;;6222944;28;20120;-74
2021/08/03 05:09:21;;;;;;;4.28;2.88;;;14.80;99.90;;;;;;6223083;28;20115;-74
2021/08/03 05:12:22;;;;;;;9.80;3.47;;;14.90;99.90;;;;;;6222964;28;20073;-74
2021/08/03 05:15:25;;;;;;;4.43;3.28;;;15.00;99.90;;;;;;6222805;28;20151;-75
2021/08/03 05:18:28;;;;;;;5.18;2.42;;;15.10;99.90;;;;;;6222085;28;20127;-74
2021/08/03 05:21:30;;;;;;;7.80;2.65;;;15.10;99.90;;;;;;6223385;28;20453;-74
2021/08/03 05:24:31;;;;;;;17.42;4.97;;;15.30;99.90;;;;;;6223242;28;20054;-74
2021/08/03 05:27:33;;;;;;;3.80;2.10;;;15.40;99.90;;;;;;6222536;28;20046;-74
2021/08/03 05:30:35;;;;;;;5.93;2.70;;;15.50;99.90;;;;;;6222749;28;20538;-74
2021/08/03 05:33:38;;;;;;;5.30;2.80;;;15.80;99.90;;;;;;6222865;28;20189;-74
2021/08/03 05:36:40;;;;;;;3.10;2.53;;;15.90;99.90;;;;;;6222635;28;20050;-74
2021/08/03 05:39:42;;;;;;;3.42;1.77;;;16.20;99.90;;;;;;6222645;28;20057;-74
2021/08/03 05:42:44;;;;;;;4.00;2.05;;;16.30;99.90;;;;;;6222552;28;20144;-75
2021/08/03 05:45:47;;;;;;;4.15;1.65;;;16.50;99.90;;;;;;6222587;28;20084;-74
2021/08/03 05:48:50;;;;;;;8.85;2.00;;;16.60;99.90;;;;;;6222236;28;20049;-74
2021/08/03 05:51:52;;;;;;;1.95;1.80;;;16.70;99.90;;;;;;6222110;28;20224;-75
2021/08/03 05:54:54;;;;;;;5.90;2.00;;;16.80;99.90;;;;;;6222222;28;20048;-74
2021/08/03 05:57:56;;;;;;;1.88;1.60;;;16.90;99.90;;;;;;6222381;28;20104;-75
2021/08/03 06:00:57;;;;;;;4.82;2.30;;;17.10;99.90;;;;;;6221788;28;20068;-75
2021/08/03 06:04:01;;;;;;;6.93;3.08;;;17.20;99.90;;;;;;6215901;28;20080;-74
2021/08/03 06:07:04;;;;;;;3.67;2.10;;;17.30;99.90;;;;;;6219989;28;20050;-74
2021/08/03 06:10:08;;;;;;;5.88;2.50;;;17.40;99.90;;;;;;6222612;28;20049;-75
2021/08/03 06:13:13;;;;;;;5.03;2.22;;;17.50;99.90;;;;;;6221949;28;20573;-74
2021/08/03 06:16:17;;;;;;;7.88;2.78;;;17.70;99.90;;;;;;6221591;28;20131;-74
2021/08/03 06:19:23;;;;;;;4.05;2.20;;;17.80;99.90;;;;;;6221652;28;20038;-74
2021/08/03 06:22:27;;;;;;;4.68;2.17;;;17.90;99.90;;;;;;6222057;28;20133;-74
2021/08/03 06:25:29;;;;;;;5.22;1.80;;;17.90;99.10;;;;;;6222253;28;20054;-74
2021/08/03 06:28:31;;;;;;;6.82;3.47;;;17.90;98.70;;;;;;6221486;28;20172;-75
2021/08/03 06:31:33;;;;;;;1.67;1.52;;;18.00;98.20;;;;;;6221738;28;20037;-75
2021/08/03 06:34:38;;;;;;;3.78;2.10;;;18.10;97.50;;;;;;6221942;28;20149;-74
2021/08/03 06:37:40;;;;;;;3.25;2.35;;;18.20;96.60;;;;;;6221899;28;20052;-75
2021/08/03 06:40:47;;;;;;;2.88;1.65;;;18.30;95.80;;;;;;6222000;28;20045;-75
2021/08/03 06:43:55;;;;;;;1.65;1.40;;;18.40;95.60;;;;;;6222573;28;20128;-74
2021/08/03 06:47:00;;;;;;;2.53;1.85;;;18.30;95.60;;;;;;6222132;28;20042;-74
2021/08/03 06:50:04;;;;;;;1.88;1.55;;;18.30;95.30;;;;;;6250038;28;20038;-74
2021/08/03 06:53:07;;;;;;;1.63;1.42;;;18.40;94.80;;;;;;6253381;28;20042;-75
2021/08/03 06:56:10;;;;;;;4.28;2.03;;;18.30;94.70;;;;;;6250923;28;20478;-74
2021/08/03 06:59:17;;;;;;;4.78;1.95;;;18.30;94.70;;;;;;6253523;28;20030;-74
2021/08/03 07:02:27;;;;;;;2.15;1.63;;;18.30;95.30;;;;;;6253134;28;20041;-75
2021/08/03 07:05:31;;;;;;;3.58;2.38;;;18.20;95.70;;;;;;6250779;28;20070;-75
2021/08/03 07:08:34;;;;;;;2.53;1.70;;;18.10;96.10;;;;;;6253092;28;20033;-74
2021/08/03 07:11:36;;;;;;;2.63;2.00;;;18.10;96.60;;;;;;6249940;28;20061;-75
2021/08/03 07:14:38;;;;;;;6.30;2.33;;;18.00;97.40;;;;;;6252915;28;20037;-74
2021/08/03 07:17:42;;;;;;;3.22;2.45;;;17.90;98.30;;;;;;6239255;28;20081;-74
2021/08/03 07:20:45;;;;;;;3.65;2.75;;;17.90;99.20;;;;;;6222292;28;20042;-75
2021/08/03 07:23:50;;;;;;;4.78;2.75;;;17.90;99.80;;;;;;6221479;28;20150;-75
2021/08/03 07:26:52;;;;;;;9.35;3.55;;;18.00;99.90;;;;;;6221281;28;20046;-74
2021/08/03 07:29:54;;;;;;;4.53;2.60;;;18.00;99.90;;;;;;6221652;28;20046;-75
2021/08/03 07:32:56;;;;;;;3.08;2.70;;;18.20;99.90;;;;;;6221483;28;20120;-75
2021/08/03 07:35:59;;;;;;;3.53;2.50;;;18.20;99.90;;;;;;6220418;28;20076;-75
2021/08/03 07:39:04;;;;;;;2.70;2.50;;;18.20;99.90;;;;;;6221377;28;20100;-73
2021/08/03 07:42:07;;;;;;;3.60;3.15;;;18.10;99.90;;;;;;6225569;28;20057;-74
2021/08/03 07:45:10;;;;;;;2.97;2.13;;;18.10;99.90;;;;;;6225060;28;20045;-75
2021/08/03 07:48:11;;;;;;;4.82;2.58;;;18.00;99.90;;;;;;6224868;28;20042;-75
2021/08/03 07:51:15;;;;;;;4.72;2.90;;;17.90;99.90;;;;;;6224961;28;20042;-75
2021/08/03 07:54:16;;;;;;;5.00;2.42;;;17.60;99.90;;;;;;6225524;28;20046;-74
2021/08/03 07:57:18;;;;;;;7.80;3.38;;;17.40;99.90;;;;;;6224489;28;20053;-74
2021/08/03 08:00:20;;;;;;;6.90;5.70;;;17.20;99.90;;;;;;6224807;28;20519;-74
2021/08/03 08:03:22;;;;;;;4.47;3.03;;;17.10;99.90;;;;;;6224607;28;20038;-75
2021/08/03 08:06:25;;;;;;;7.25;4.05;;;16.90;99.90;;;;;;6224778;28;20543;-74
2021/08/03 08:09:27;;;;;;;5.72;4.00;;;16.80;99.90;;;;;;6224932;28;20459;-74
2021/08/03 08:12:29;;;;;;;5.90;4.22;;;16.70;99.90;;;;;;6224673;28;20163;-74
2021/08/03 08:15:31;;;;;;;4.70;4.20;;;16.70;99.90;;;;;;6224785;28;20089;-75
2021/08/03 08:18:33;;;;;;;7.50;5.20;;;16.60;99.90;;;;;;6224092;28;20056;-75
2021/08/03 08:21:36;;;;;;;5.45;4.60;;;16.60;99.90;;;;;;6225197;28;20050;-74
2021/08/03 08:24:38;;;;;;;7.03;5.43;;;16.50;99.90;;;;;;6224326;28;20121;-74
2021/08/03 08:27:41;;;;;;;5.72;5.13;;;16.50;99.90;;;;;;6223992;28;20132;-75
2021/08/03 08:30:43;;;;;;;5.70;4.97;;;16.50;99.90;;;;;;6224481;28;20103;-74
2021/08/03 08:33:45;;;;;;;7.95;5.15;;;16.50;99.90;;;;;;6223610;28;20053;-74
2021/08/03 08:36:50;;;;;;;6.20;4.80;;;16.50;99.90;;;;;;6223625;28;20136;-75
2021/08/03 08:39:52;;;;;;;5.40;4.47;;;16.50;99.90;;;;;;6224127;28;20045;-74
2021/08/03 08:42:54;;;;;;;8.13;4.63;;;16.50;99.90;;;;;;6223950;28;20038;-74
2021/08/03 08:45:56;;;;;;;5.68;4.50;;;16.50;99.90;;;;;;6224431;28;20053;-74
2021/08/03 08:48:58;;;;;;;5.47;4.65;;;16.40;99.90;;;;;;6224056;28;20050;-74
2021/08/03 08:52:02;;;;;;;6.63;4.55;;;16.40;99.90;;;;;;6223289;28;20555;-75
2021/08/03 08:55:06;;;;;;;7.45;4.80;;;16.30;99.90;;;;;;6223736;28;20056;-74
2021/08/03 08:58:07;;;;;;;8.15;5.88;;;16.20;99.90;;;;;;6223907;28;20072;-74
2021/08/03 09:01:09;;;;;;;11.27;6.25;;;16.20;99.90;;;;;;6223621;28;20388;-75
2021/08/03 09:04:11;;;;;;;6.85;6.15;;;16.10;99.90;;;;;;6223428;28;20496;-75
2021/08/03 09:07:14;;;;;;;7.20;5.97;;;16.10;99.90;;;;;;6223260;28;20119;-76
2021/08/03 09:10:44;;;;;;;10.07;7.38;;;16.10;99.90;;;;;;6223626;28;20050;-76
2021/08/03 09:13:51;;;;;;;9.73;7.15;;;16.10;99.90;;;;;;6189035;28;20069;-75
2021/08/03 09:16:55;;;;;;;14.35;4.88;;;16.20;99.90;;;;;;6222464;28;20053;-75
2021/08/03 09:19:57;;;;;;;6.65;4.75;;;16.20;99.90;;;;;;6223102;28;20411;-75
2021/08/03 09:23:01;;;;;;;7.72;5.43;;;16.20;99.90;;;;;;6222998;28;20041;-75
2021/08/03 09:26:02;;;;;;;5.63;3.97;;;16.30;99.90;;;;;;6223226;28;20143;-74
2021/08/03 09:29:06;;;;;;;10.80;3.45;;;16.30;99.90;;;;;;6222905;28;20073;-75
2021/08/03 09:32:08;;;;;;;7.70;4.10;;;16.30;99.90;;;;;;6223133;28;20042;-75
2021/08/03 09:35:12;;;;;;;4.05;3.47;;;16.20;99.90;;;;;;6222766;28;20131;-76
2021/08/03 09:38:16;;;;;;;4.30;3.40;;;16.10;99.90;;;;;;6223085;28;20050;-75
2021/08/03 09:41:18;;;;;;;5.50;3.35;;;16.00;99.90;;;;;;6222746;28;20167;-75
2021/08/03 09:44:20;;;;;;;3.30;3.00;;;16.00;99.90;;;;;;6222884;28;20180;-75
2021/08/03 09:47:23;;;;;;;4.35;2.95;;;15.90;99.90;;;;;;6222263;28;20092;-75
2021/08/03 09:50:25;;;;;;;6.10;3.15;;;15.80;99.90;;;;;;6222612;28;20048;-75
2021/08/03 09:53:42;;;;;;;5.22;3.08;;;15.80;99.90;;;;;;6222972;28;20057;-75
2021/08/03 09:56:44;;;;;;;4.78;3.47;;;15.80;99.90;;;;;;6222096;28;20504;-75
2021/08/03 09:59:46;;;;;;;4.32;3.65;;;16.00;99.90;;;;;;6222265;28;20113;-75
2021/08/03 10:02:48;;;;;;;3.10;2.58;;;16.10;99.90;;;;;;6221825;28;20049;-76
2021/08/03 10:05:50;;;;;;;3.22;2.80;;;16.20;99.90;;;;;;6222276;28;20090;-75
2021/08/03 10:08:55;;;;;;;2.97;2.67;;;16.40;99.90;;;;;;6220367;28;20115;-74
2021/08/03 10:11:56;;;;;;;2.75;2.17;;;16.70;99.90;;;;;;6218835;28;20137;-75
2021/08/03 10:14:58;;;;;;;4.15;1.85;;;17.10;99.90;;;;;;6216656;28;20538;-74
2021/08/03 10:18:00;;;;;;;3.85;1.40;;;17.40;99.90;;;;;;6221386;28;20053;-74
2021/08/03 10:21:03;;;;;;;1.35;1.13;;;17.80;99.90;;;;;;6220836;28;20046;-75
2021/08/03 10:24:15;;;;;;;1.27;1.00;;;18.20;99.90;;;;;;6221305;28;20062;-74
2021/08/03 10:27:17;;;;;;;3.28;1.33;;;18.50;99.90;;;;;;6220488;28;20042;-74
2021/08/03 10:30:43;;;;;;;1.85;1.00;;;18.80;99.90;;;;;;6221677;28;20049;-74
2021/08/03 10:33:46;;;;;;;2.67;1.60;;;18.90;99.90;;;;;;6201644;28;20057;-74
2021/08/03 10:36:50;;;;;;;1.60;1.50;;;19.30;99.90;;;;;;6220451;28;20511;-73
2021/08/03 10:39:54;;;;;;;5.03;1.15;;;19.80;99.90;;;;;;6220500;28;20045;-74
2021/08/03 10:43:14;;;;;;;1.17;1.02;;;20.10;99.90;;;;;;6220870;28;20533;-75
2021/08/03 10:46:34;;;;;;;1.27;1.05;;;20.40;99.90;;;;;;6220583;28;20099;-74
2021/08/03 10:49:54;;;;;;;1.30;1.20;;;20.70;99.90;;;;;;6221125;28;20088;-74
2021/08/03 10:52:58;;;;;;;1.13;0.93;;;21.20;99.90;;;;;;6220922;28;20046;-74
2021/08/03 10:56:01;;;;;;;4.53;1.00;;;21.80;99.90;;;;;;6220288;28;20463;-74
2021/08/03 10:59:33;;;;;;;1.30;0.98;;;22.10;99.90;;;;;;6220542;28;20500;-74
2021/08/03 11:02:46;;;;;;;0.98;0.90;;;22.20;97.40;;;;;;6220474;28;20136;-75
2021/08/03 11:05:47;;;;;;;2.67;0.93;;;22.30;96.50;;;;;;6220568;28;20134;-72
2021/08/03 11:08:49;;;;;;;3.55;1.30;;;22.30;96.00;;;;;;6220602;28;20146;-75
2021/08/03 11:11:52;;;;;;;2.08;0.85;;;22.60;94.40;;;;;;6220400;28;20136;-75
2021/08/03 11:14:54;;;;;;;1.17;1.00;;;23.00;93.30;;;;;;6221475;28;20050;-75
2021/08/03 11:17:57;;;;;;;1.27;0.90;;;23.50;90.60;;;;;;6224987;28;20141;-75
2021/08/03 11:21:05;;;;;;;1.85;0.90;;;23.80;85.10;;;;;;6224980;28;20045;-75
2021/08/03 11:24:11;;;;;;;0.82;0.82;;;23.80;81.00;;;;;;6224922;28;20103;-75
2021/08/03 11:27:27;;;;;;;1.40;0.88;;;23.80;77.00;;;;;;6224549;28;20124;-75
2021/08/03 11:30:29;;;;;;;1.75;1.15;;;23.90;75.70;;;;;;6224649;28;20558;-75
2021/08/03 11:33:30;;;;;;;1.40;0.80;;;24.00;74.50;;;;;;6225160;28;20145;-75
2021/08/03 11:36:33;;;;;;;1.85;0.73;;;24.40;73.50;;;;;;6224411;28;20535;-75
2021/08/03 11:39:37;;;;;;;2.20;1.10;;;24.70;71.50;;;;;;6224490;28;20616;-75
2021/08/03 11:42:42;;;;;;;1.10;0.70;;;24.50;70.40;;;;;;6224530;28;20042;-75
2021/08/03 11:45:43;;;;;;;0.88;0.73;;;24.60;71.50;;;;;;6224302;28;20654;-75
2021/08/03 11:48:46;;;;;;;1.83;1.00;;;24.70;71.10;;;;;;6224415;28;20100;-75
2021/08/03 11:51:48;;;;;;;1.05;0.90;;;24.70;69.70;;;;;;6224289;28;20181;-74
2021/08/03 11:54:52;;;;;;;1.75;1.35;;;24.50;68.00;;;;;;6224036;28;20045;-74
2021/08/03 11:57:55;;;;;;;0.88;0.88;;;24.30;70.10;;;;;;6224490;28;20184;-74
2021/08/03 12:01:00;;;;;;;1.65;1.15;;;24.30;68.90;;;;;;6223972;28;20064;-74
2021/08/03 12:04:14;;;;;;;1.85;1.23;;;24.20;68.00;;;;;;6224089;28;20428;-75
2021/08/03 12:07:16;;;;;;;1.25;0.85;;;24.30;68.90;;;;;;6223688;28;20077;-74
2021/08/03 12:10:20;;;;;;;1.42;1.15;;;24.20;69.60;;;;;;6224255;28;20471;-74
2021/08/03 12:13:28;;;;;;;1.95;1.20;;;24.20;70.20;;;;;;6223531;28;20462;-74
2021/08/03 12:16:32;;;;;;;1.60;1.20;;;24.50;69.60;;;;;;6221669;28;20107;-73
2021/08/03 12:19:35;;;;;;;1.25;0.85;;;24.70;68.40;;;;;;6223753;28;20089;-74
2021/08/03 12:22:38;;;;;;;1.77;1.33;;;24.90;68.20;;;;;;6223299;28;20516;-72
2021/08/03 12:25:43;;;;;;;1.52;1.00;;;24.90;65.70;;;;;;6223265;28;20072;-74
2021/08/03 12:28:53;;;;;;;1.15;0.60;;;25.00;64.90;;;;;;6223744;28;20127;-74
2021/08/03 12:31:55;;;;;;;1.38;1.23;;;24.90;64.70;;;;;;6223411;28;20046;-74
2021/08/03 12:35:09;;;;;;;2.00;0.73;;;24.80;66.00;;;;;;6223541;28;20057;-74
2021/08/03 12:38:12;;;;;;;0.93;0.70;;;24.70;64.50;;;;;;6223218;28;20068;-74
2021/08/03 12:41:16;;;;;;;1.48;0.70;;;24.60;63.20;;;;;;6223227;28;20042;-74
2021/08/03 12:44:29;;;;;;;2.88;0.70;;;24.60;63.90;;;;;;6223306;28;20057;-74
2021/08/03 12:47:31;;;;;;;2.05;0.80;;;24.70;64.30;;;;;;6222520;28;20045;-74
2021/08/03 12:50:48;;;;;;;3.08;0.73;;;24.80;63.90;;;;;;6223015;28;20537;-73
2021/08/03 12:53:49;;;;;;;1.02;0.95;;;24.90;62.20;;;;;;6223661;28;20057;-74
2021/08/03 12:56:55;;;;;;;1.10;0.80;;;24.90;62.70;;;;;;6222365;28;20061;-74
2021/08/03 12:59:58;;;;;;;1.23;0.73;;;25.00;63.40;;;;;;6223010;28;20060;-74
2021/08/03 13:03:02;;;;;;;1.38;0.85;;;25.20;64.00;;;;;;6222924;28;20495;-74
2021/08/03 13:06:05;;;;;;;1.45;0.60;;;25.60;61.80;;;;;;6223347;28;20054;-75
2021/08/03 13:09:07;;;;;;;0.63;0.47;;;25.80;60.00;;;;;;6223702;28;20397;-74
2021/08/03 13:12:09;;;;;;;0.88;0.60;;;25.80;60.30;;;;;;6222910;28;20468;-75
2021/08/03 13:15:13;;;;;;;1.50;0.90;;;25.80;59.70;;;;;;6223269;28;20451;-74
2021/08/03 13:18:15;;;;;;;0.63;0.63;;;25.80;58.50;;;;;;6221365;28;20056;-73
2021/08/03 13:21:18;;;;;;;0.70;0.70;;;25.80;60.40;;;;;;6222813;28;20049;-74
2021/08/03 13:24:19;;;;;;;1.05;0.63;;;25.90;58.80;;;;;;6222499;28;20065;-74
2021/08/03 13:27:21;;;;;;;1.35;0.95;;;25.90;58.80;;;;;;6222368;28;20129;-74
2021/08/03 13:30:24;;;;;;;4.80;1.92;;;25.60;59.40;;;;;;6222393;28;20579;-74
2021/08/03 13:33:27;;;;;;;2.42;1.00;;;25.20;61.00;;;;;;6222494;28;20056;-73
2021/08/03 13:36:29;;;;;;;1.55;1.45;;;25.10;61.50;;;;;;6221553;28;20140;-74
2021/08/03 13:39:31;;;;;;;1.30;1.20;;;25.00;61.90;;;;;;6220933;28;20268;-74
2021/08/03 13:42:33;;;;;;;1.50;1.40;;;25.00;60.90;;;;;;6221972;28;20077;-74
2021/08/03 13:45:36;;;;;;;2.67;1.80;;;24.90;59.80;;;;;;6221993;28;20132;-74
2021/08/03 13:48:38;;;;;;;2.83;1.35;;;24.70;60.80;;;;;;6221477;28;20220;-74
2021/08/03 13:51:40;;;;;;;0.90;0.70;;;24.50;61.70;;;;;;6221590;28;20128;-74
2021/08/03 13:54:42;;;;;;;1.10;1.00;;;24.30;60.70;;;;;;6221850;28;20056;-74
2021/08/03 13:57:44;;;;;;;1.80;1.30;;;24.10;62.50;;;;;;6221810;28;20136;-74
2021/08/03 14:00:47;;;;;;;1.48;1.25;;;24.10;62.70;;;;;;6221660;28;20127;-74
2021/08/03 14:03:49;;;;;;;2.00;1.15;;;24.10;63.10;;;;;;6221848;28;20502;-75
2021/08/03 14:06:51;;;;;;;3.00;1.60;;;24.00;63.90;;;;;;6221507;28;20053;-75
2021/08/03 14:09:53;;;;;;;1.02;0.93;;;23.80;64.60;;;;;;6222213;28;20137;-75
2021/08/03 14:12:55;;;;;;;1.50;1.40;;;23.60;65.50;;;;;;6221673;28;20511;-75
2021/08/03 14:15:58;;;;;;;3.40;2.40;;;23.50;68.60;;;;;;6221481;28;20127;-74
2021/08/03 14:19:00;;;;;;;2.08;1.10;;;23.30;71.40;;;;;;6219846;28;20080;-74
2021/08/03 14:22:01;;;;;;;2.28;1.45;;;23.00;72.60;;;;;;6221954;28;20111;-74
2021/08/03 14:25:04;;;;;;;1.70;1.17;;;22.60;74.90;;;;;;6221664;28;20131;-73
2021/08/03 14:28:05;;;;;;;3.45;1.90;;;22.30;77.50;;;;;;6221248;28;20184;-74
2021/08/03 14:31:11;;;;;;;6.30;1.85;;;21.70;80.20;;;;;;6221595;28;20065;-76
2021/08/03 14:34:13;;;;;;;3.10;2.00;;;21.10;83.70;;;;;;6221958;28;20085;-74
2021/08/03 14:37:14;;;;;;;5.80;2.33;;;20.50;86.00;;;;;;6220983;28;20530;-74
2021/08/03 14:40:17;;;;;;;4.18;2.10;;;20.10;89.50;;;;;;6221422;28;20046;-73
2021/08/03 14:43:19;;;;;;;2.33;1.27;;;19.70;91.00;;;;;;6221488;28;20042;-73
2021/08/03 14:46:22;;;;;;;2.10;1.40;;;19.30;91.40;;;;;;6221780;28;20131;-72
2021/08/03 14:49:24;;;;;;;5.10;2.85;;;18.70;92.30;;;;;;6222969;28;20050;-72
2021/08/03 14:52:29;;;;;;;1.58;1.40;;;18.30;93.90;;;;;;6226513;28;20571;-73
2021/08/03 14:55:32;;;;;;;1.77;1.27;;;17.90;95.00;;;;;;6226222;28;20050;-72
2021/08/03 14:58:35;;;;;;;2.88;1.27;;;17.60;96.70;;;;;;6226001;28;20496;-72
2021/08/03 15:01:40;;;;;;;4.03;1.52;;;17.30;98.10;;;;;;6226392;28;20050;-72
2021/08/03 15:04:41;;;;;;;2.53;1.40;;;17.10;99.90;;;;;;6225647;28;20050;-72
2021/08/03 15:07:43;;;;;;;1.40;1.15;;;16.80;99.90;;;;;;6225481;28;20466;-72
2021/08/03 15:10:45;;;;;;;2.22;1.92;;;16.70;99.90;;;;;;6226088;28;20136;-72
2021/08/03 15:13:47;;;;;;;4.60;1.42;;;16.60;99.90;;;;;;6226314;28;20136;-71
2021/08/03 15:16:50;;;;;;;3.60;1.63;;;16.60;99.90;;;;;;6225111;28;20182;-71
2021/08/03 15:19:52;;;;;;;3.03;1.50;;;16.70;99.90;;;;;;6217688;28;20500;-71
2021/08/03 15:22:54;;;;;;;4.47;2.35;;;16.80;99.90;;;;;;6201335;28;20189;-72
2021/08/03 15:25:56;;;;;;;2.95;1.60;;;16.90;99.90;;;;;;6201626;28;20108;-73
2021/08/03 15:28:58;;;;;;;2.17;1.60;;;17.00;99.90;;;;;;6200856;28;20508;-74
2021/08/03 15:32:01;;;;;;;3.55;1.75;;;17.10;99.90;;;;;;6200998;28;20212;-73
2021/08/03 15:35:03;;;;;;;2.17;1.50;;;17.20;99.90;;;;;;6200920;28;20118;-74
2021/08/03 15:38:05;;;;;;;2.47;1.75;;;17.30;99.90;;;;;;6201198;28;20088;-74
2021/08/03 15:41:07;;;;;;;1.73;1.25;;;17.50;99.90;;;;;;6201174;28;20074;-74
2021/08/03 15:44:08;;;;;;;5.15;2.47;;;17.60;99.90;;;;;;6200747;28;20128;-75
2021/08/03 15:47:12;;;;;;;4.85;1.48;;;17.70;99.90;;;;;;6200885;28;20185;-73
2021/08/03 15:50:14;;;;;;;1.88;1.55;;;17.70;99.90;;;;;;6202684;28;20419;-74
2021/08/03 15:53:17;;;;;;;3.25;1.90;;;17.80;99.90;;;;;;6202134;28;20050;-74
2021/08/03 15:56:19;;;;;;;2.00;1.23;;;17.80;99.90;;;;;;6201820;28;20046;-76
2021/08/03 15:59:20;;;;;;;1.70;1.38;;;17.90;99.90;;;;;;6202248;28;20479;-74